Time;durP1;ratioP1;P1;durP2;ratioP2;P2;SDS_P1;SDS_P2;PMS_P1;PMS_P2;Temp;Humidity;BMP_temperature;BMP_pressure;BME280_temperature;BME280_humidity;BME280_pressure;Samples;Min_cycle;Max_cycle;Signal;HPM_P1;HPM_P2
2024/01/15 00:01:14;;;;;;;;;;;;;;;17.37;34.95;100316.38;5038260;28;1104;-57
2024/01/15 00:03:39;;;;;;;;;;;;;;;16.46;36.69;100320.38;5038671;28;1024;-57
2024/01/15 00:06:05;;;;;;;;;;;;;;;16.16;37.16;100322.19;5038196;28;1303;-57
2024/01/15 00:08:31;;;;;;;;;;;;;;;17.70;34.26;100317.41;5037998;28;1056;-57
2024/01/15 00:10:56;;;;;;;;;;;;;;;17.21;35.13;100319.28;5038065;28;1276;-57
2024/01/15 00:13:22;;;;;;;;;;;;;;;16.45;36.55;100315.16;5038456;28;1014;-57
2024/01/15 00:15:48;;;;;;;;;;;;;;;16.47;36.53;100316.53;5038391;28;1092;-56
2024/01/15 00:18:13;;;;;;;;;;;;;;;17.89;33.88;100311.13;5037575;28;1969;-56
2024/01/15 00:20:39;;;;;;;;;;;;;;;17.12;35.31;100307.28;5038475;28;1164;-57
2024/01/15 00:23:04;;;;;;;;;;;;;;;16.33;36.71;100305.34;5038180;28;1147;-57
2024/01/15 00:25:30;;;;;;;;;;;;;;;16.83;36.15;100312.69;5038403;28;1071;-56
2024/01/15 00:27:55;;;;;;;;;;;;;;;18.05;33.81;100315.38;5038563;28;1068;-56
2024/01/15 00:30:21;;;;;;;;;;;;;;;16.89;35.74;100311.59;5038388;28;1159;-57
2024/01/15 00:32:47;;;;;;;;;;;;;;;16.36;36.58;100317.69;5038069;28;1116;-56
2024/01/15 00:35:13;;;;;;;;;;;;;;;16.60;36.53;100315.06;5038327;28;1077;-57
2024/01/15 00:37:39;;;;;;;;;;;;;;;17.97;33.73;100306.97;5037867;28;1898;-55
2024/01/15 00:40:05;;;;;;;;;;;;;;;16.88;35.72;100309.94;5037679;28;1314;-56
2024/01/15 00:42:31;;;;;;;;;;;;;;;16.29;36.98;100309.75;5036698;28;1207;-57
2024/01/15 00:44:56;;;;;;;;;;;;;;;17.25;35.04;100314.00;5037979;28;1111;-57
2024/01/15 00:47:22;;;;;;;;;;;;;;;17.72;33.86;100314.38;5037485;28;1160;-57
2024/01/15 00:49:48;;;;;;;;;;;;;;;16.71;35.76;100313.06;5037607;28;1164;-57
2024/01/15 00:52:13;;;;;;;;;;;;;;;16.20;37.07;100316.94;5037594;28;1188;-57
2024/01/15 00:54:40;;;;;;;;;;;;;;;17.56;34.43;100319.22;5037349;28;1056;-58
2024/01/15 00:57:05;;;;;;;;;;;;;;;17.38;34.44;100310.59;5037223;28;1905;-58
2024/01/15 00:59:31;;;;;;;;;;;;;;;16.48;36.52;100309.09;5037552;28;1160;-57
2024/01/15 01:01:56;;;;;;;;;;;;;;;16.64;36.38;100305.16;5036992;28;1060;-58
2024/01/15 01:04:22;;;;;;;;;;;;;;;18.02;33.54;100304.97;5037936;28;1020;-57
2024/01/15 01:06:48;;;;;;;;;;;;;;;17.02;35.23;100304.63;5037161;28;1161;-58
2024/01/15 01:09:13;;;;;;;;;;;;;;;16.34;36.73;100301.53;5037396;28;1096;-57
2024/01/15 01:11:39;;;;;;;;;;;;;;;17.08;35.35;100306.19;5036568;28;1208;-58
2024/01/15 01:14:05;;;;;;;;;;;;;;;17.58;34.23;100300.50;5037103;28;1088;-57
2024/01/15 01:16:31;;;;;;;;;;;;;;;16.60;36.13;100295.84;5036850;28;1921;-57
2024/01/15 01:18:57;;;;;;;;;;;;;;;16.13;37.07;100299.97;5037018;28;1036;-57
2024/01/15 01:21:23;;;;;;;;;;;;;;;17.53;34.55;100298.63;5036565;28;1215;-58
2024/01/15 01:23:48;;;;;;;;;;;;;;;17.49;34.35;100302.25;5037120;28;1092;-58
2024/01/15 01:26:17;;;;;;;;;;;;;;;16.54;36.38;100297.00;5037033;28;1110;-57
2024/01/15 01:28:42;;;;;;;;;;;;;;;16.37;36.59;100300.94;5037211;28;1115;-57
2024/01/15 01:31:08;;;;;;;;;;;;;;;17.89;33.88;100297.38;5036196;28;1156;-58
2024/01/15 01:33:34;;;;;;;;;;;;;;;16.93;35.66;100291.50;5037011;28;1028;-57
2024/01/15 01:35:59;;;;;;;;;;;;;;;16.31;36.62;100291.09;5036720;28;1148;-56
2024/01/15 01:38:25;;;;;;;;;;;;;;;17.08;35.31;100286.97;5036537;28;1914;-57
2024/01/15 01:40:50;;;;;;;;;;;;;;;17.99;33.60;100283.53;5036657;28;1064;-57
2024/01/15 01:43:16;;;;;;;;;;;;;;;16.84;35.79;100281.41;5036769;28;893;-57
2024/01/15 01:45:41;;;;;;;;;;;;;;;16.26;36.69;100285.66;5036646;28;1115;-57
2024/01/15 01:48:07;;;;;;;;;;;;;;;17.05;35.44;100293.06;5036693;28;1067;-57
2024/01/15 01:50:33;;;;;;;;;;;;;;;17.93;33.69;100292.97;5036577;28;1072;-57
2024/01/15 01:52:59;;;;;;;;;;;;;;;16.71;35.92;100283.69;5036197;28;1052;-57
2024/01/15 01:55:24;;;;;;;;;;;;;;;16.25;36.86;100286.75;5036146;28;1156;-57
2024/01/15 01:57:50;;;;;;;;;;;;;;;17.48;34.46;100284.13;5036700;28;1992;-57
2024/01/15 02:00:16;;;;;;;;;;;;;;;17.60;34.24;100285.34;5036729;28;1179;-57
2024/01/15 02:02:42;;;;;;;;;;;;;;;16.63;35.91;100278.00;5018979;28;1093;-57
2024/01/15 02:05:07;;;;;;;;;;;;;;;16.15;37.04;100275.84;5036532;28;1052;-57
2024/01/15 02:07:34;;;;;;;;;;;;;;;17.50;34.43;100279.16;5036323;28;882;-57
2024/01/15 02:09:59;;;;;;;;;;;;;;;17.58;34.46;100275.75;5018278;28;1112;-57
2024/01/15 02:12:25;;;;;;;;;;;;;;;16.58;35.99;100278.88;5018499;28;1152;-57
2024/01/15 02:14:51;;;;;;;;;;;;;;;16.62;36.31;100271.69;5036412;28;1089;-57
2024/01/15 02:17:16;;;;;;;;;;;;;;;17.99;33.50;100264.25;5036197;28;1902;-57
2024/01/15 02:19:42;;;;;;;;;;;;;;;16.97;35.34;100263.47;5035805;28;1110;-58
2024/01/15 02:22:07;;;;;;;;;;;;;;;16.33;36.55;100266.13;5036577;28;1116;-58
2024/01/15 02:24:33;;;;;;;;;;;;;;;17.19;35.15;100260.22;5035808;28;1028;-57
2024/01/15 02:26:58;;;;;;;;;;;;;;;17.52;34.17;100266.75;5018855;28;986;-57
2024/01/15 02:29:24;;;;;;;;;;;;;;;16.57;36.00;100266.22;5018798;28;1470;-58
2024/01/15 02:31:49;;;;;;;;;;;;;;;16.27;36.96;100268.09;5036196;28;937;-57
2024/01/15 02:34:15;;;;;;;;;;;;;;;17.85;33.87;100266.91;5035603;28;1148;-58
2024/01/15 02:36:41;;;;;;;;;;;;;;;17.14;35.06;100258.38;5035806;28;1910;-57
2024/01/15 02:39:06;;;;;;;;;;;;;;;16.37;36.43;100261.72;5036014;28;929;-57
2024/01/15 02:41:32;;;;;;;;;;;;;;;17.22;34.93;100254.16;5036329;28;1095;-58
2024/01/15 02:43:57;;;;;;;;;;;;;;;17.92;33.50;100255.56;5035343;28;1403;-56
2024/01/15 02:46:23;;;;;;;;;;;;;;;16.72;35.68;100259.81;5036008;28;1528;-60
2024/01/15 02:48:48;;;;;;;;;;;;;;;16.25;36.82;100260.13;5036143;28;1176;-59
2024/01/15 02:51:14;;;;;;;;;;;;;;;17.44;34.78;100265.44;5036147;28;1216;-59
2024/01/15 02:53:40;;;;;;;;;;;;;;;17.54;34.06;100271.94;5035547;28;1110;-59
2024/01/15 02:56:06;;;;;;;;;;;;;;;16.56;36.01;100265.44;5035932;28;956;-59
2024/01/15 02:58:32;;;;;;;;;;;;;;;16.16;37.05;100261.00;5035764;28;1044;-59
2024/01/15 03:00:57;;;;;;;;;;;;;;;17.62;34.30;100274.06;5035935;28;1021;-60
2024/01/15 03:03:23;;;;;;;;;;;;;;;17.37;34.58;100256.75;5035928;28;1123;-59
2024/01/15 03:05:49;;;;;;;;;;;;;;;16.49;36.21;100253.13;5036847;28;1204;-59
2024/01/15 03:08:14;;;;;;;;;;;;;;;16.66;35.95;100264.53;5039366;28;1187;-60
2024/01/15 03:10:40;;;;;;;;;;;;;;;18.04;33.68;100264.22;5039706;28;1272;-60
2024/01/15 03:13:05;;;;;;;;;;;;;;;17.00;35.10;100274.69;5039369;28;1147;-60
2024/01/15 03:15:31;;;;;;;;;;;;;;;16.38;36.59;100275.16;5039338;28;1005;-60
2024/01/15 03:17:57;;;;;;;;;;;;;;;17.66;34.38;100274.31;5039612;28;1906;-59
2024/01/15 03:20:22;;;;;;;;;;;;;;;17.41;34.47;100268.78;5039566;28;947;-59
2024/01/15 03:22:49;;;;;;;;;;;;;;;16.57;36.29;100278.03;5039243;28;1048;-60
2024/01/15 03:25:14;;;;;;;;;;;;;;;16.13;36.99;100275.28;5038957;28;1005;-60
2024/01/15 03:27:40;;;;;;;;;;;;;;;17.71;34.36;100287.97;5039420;28;1060;-60
2024/01/15 03:30:06;;;;;;;;;;;;;;;17.20;35.01;100272.88;5039104;28;1124;-60
2024/01/15 03:32:31;;;;;;;;;;;;;;;16.40;36.59;100280.34;5038689;28;1135;-59
2024/01/15 03:34:57;;;;;;;;;;;;;;;16.88;35.77;100279.72;5038818;28;1084;-60
2024/01/15 03:37:23;;;;;;;;;;;;;;;18.04;33.70;100272.47;5039200;28;1898;-60
2024/01/15 03:39:48;;;;;;;;;;;;;;;16.86;35.70;100282.75;5039248;28;1028;-59
2024/01/15 03:42:14;;;;;;;;;;;;;;;16.30;36.60;100277.66;5039065;28;1087;-60
2024/01/15 03:44:40;;;;;;;;;;;;;;;17.08;35.58;100286.97;5038577;28;902;-59
2024/01/15 03:47:05;;;;;;;;;;;;;;;17.92;33.75;100272.91;5038811;28;1120;-59
2024/01/15 03:49:31;;;;;;;;;;;;;;;16.74;35.71;100274.88;5038731;28;1044;-59
2024/01/15 03:51:56;;;;;;;;;;;;;;;16.26;37.14;100266.44;5038459;28;1140;-59
2024/01/15 03:54:22;;;;;;;;;;;;;;;17.64;34.29;100271.81;5038982;28;864;-59
2024/01/15 03:56:47;;;;;;;;;;;;;;;17.41;34.79;100271.53;5038302;28;1902;-59
2024/01/15 03:59:13;;;;;;;;;;;;;;;16.52;36.31;100272.59;5039064;28;1101;-59
2024/01/15 04:01:38;;;;;;;;;;;;;;;16.10;37.29;100270.38;5038355;28;1191;-59
2024/01/15 04:04:04;;;;;;;;;;;;;;;17.52;34.73;100279.69;5038805;28;1060;-60
2024/01/15 04:06:30;;;;;;;;;;;;;;;17.33;34.90;100280.41;5038384;28;1028;-59
2024/01/15 04:08:55;;;;;;;;;;;;;;;16.46;36.38;100281.94;5038242;28;988;-58
2024/01/15 04:11:22;;;;;;;;;;;;;;;16.90;35.82;100285.75;5038095;28;1131;-58
2024/01/15 04:13:48;;;;;;;;;;;;;;;17.97;33.68;100273.97;5038163;28;1231;-58
2024/01/15 04:16:13;;;;;;;;;;;;;;;16.75;35.79;100276.50;5037818;28;1972;-58
2024/01/15 04:18:39;;;;;;;;;;;;;;;16.20;37.00;100281.28;5038725;28;1044;-57
2024/01/15 04:21:06;;;;;;;;;;;;;;;17.44;34.80;100290.19;5037781;28;976;-59
2024/01/15 04:23:32;;;;;;;;;;;;;;;17.18;35.02;100289.66;5033880;28;1184;-57
2024/01/15 04:25:57;;;;;;;;;;;;;;;16.37;36.53;100287.22;5032782;28;1060;-56
2024/01/15 04:28:23;;;;;;;;;;;;;;;16.64;36.26;100293.38;5037959;28;1105;-58
2024/01/15 04:30:48;;;;;;;;;;;;;;;17.95;33.74;100288.00;5031644;28;1072;-58
2024/01/15 04:33:14;;;;;;;;;;;;;;;16.85;35.61;100288.53;5035250;28;1080;-59
2024/01/15 04:35:40;;;;;;;;;;;;;;;16.23;36.78;100288.97;5037641;28;1095;-58
2024/01/15 04:38:05;;;;;;;;;;;;;;;17.14;35.42;100296.00;5037816;28;1910;-58
2024/01/15 04:40:31;;;;;;;;;;;;;;;17.83;33.90;100293.06;5038024;28;1068;-58
2024/01/15 04:42:56;;;;;;;;;;;;;;;16.74;36.15;100293.28;5037835;28;1064;-59
2024/01/15 04:45:28;;;;;;;;;;;;;;;16.20;37.20;100297.72;5037213;28;1056;-57
2024/01/15 04:47:55;;;;;;;;;;;;;;;17.67;34.60;100295.16;5037823;28;1048;-59
2024/01/15 04:50:21;;;;;;;;;;;;;;;17.21;35.08;100296.50;5037677;28;1178;-59
2024/01/15 04:52:46;;;;;;;;;;;;;;;16.42;36.44;100291.84;5037348;28;1099;-59
2024/01/15 04:55:12;;;;;;;;;;;;;;;16.54;36.69;100286.03;5039534;28;1291;-57
2024/01/15 04:57:37;;;;;;;;;;;;;;;17.94;34.08;100280.88;5037077;28;1971;-56
2024/01/15 05:00:04;;;;;;;;;;;;;;;16.91;35.66;100288.25;5037304;28;898;-52
2024/01/15 05:02:30;;;;;;;;;;;;;;;16.25;37.04;100281.25;5037778;28;1144;-53
2024/01/15 05:04:56;;;;;;;;;;;;;;;16.74;36.24;100288.59;5037117;28;1032;-57
2024/01/15 05:07:21;;;;;;;;;;;;;;;18.01;33.78;100281.31;5037361;28;1156;-56
2024/01/15 05:09:47;;;;;;;;;;;;;;;16.89;35.69;100284.94;5037021;28;889;-58
2024/01/15 05:12:13;;;;;;;;;;;;;;;16.26;36.70;100285.66;5037145;28;1061;-58
2024/01/15 05:14:38;;;;;;;;;;;;;;;16.86;36.02;100284.69;5037417;28;1084;-60
2024/01/15 05:17:04;;;;;;;;;;;;;;;17.86;33.75;100278.72;5037064;28;1910;-61
2024/01/15 05:19:30;;;;;;;;;;;;;;;16.68;36.02;100281.53;5037017;28;1121;-59
2024/01/15 05:21:55;;;;;;;;;;;;;;;17.49;34.87;100277.50;5036546;28;1046;-61
2024/01/15 05:24:21;;;;;;;;;;;;;;;17.00;35.33;100282.09;5037184;28;1080;-59
2024/01/15 05:26:46;;;;;;;;;;;;;;;16.30;36.91;100275.75;5037299;28;1159;-58
2024/01/15 05:29:12;;;;;;;;;;;;;;;15.92;37.63;100278.13;5036083;28;1155;-57
2024/01/15 05:31:37;;;;;;;;;;;;;;;17.34;35.02;100276.56;5037150;28;1075;-60
2024/01/15 05:34:03;;;;;;;;;;;;;;;17.12;35.37;100274.31;5036707;28;939;-62
2024/01/15 05:36:29;;;;;;;;;;;;;;;16.30;36.76;100275.75;5036440;28;1906;-59
2024/01/15 05:38:54;;;;;;;;;;;;;;;16.15;37.38;100264.88;5036675;28;1076;-59
2024/01/15 05:41:20;;;;;;;;;;;;;;;17.38;34.93;100272.13;5038359;28;1051;-57
2024/01/15 05:43:45;;;;;;;;;;;;;;;16.26;36.97;100269.19;5047968;28;1147;-57
2024/01/15 05:46:11;;;;;;;;;;;;;;;16.07;37.45;100266.25;5035706;28;1328;-56
2024/01/15 05:48:37;;;;;;;;;;;;;;;17.90;34.05;100268.78;5036836;28;929;-57
2024/01/15 05:51:02;;;;;;;;;;;;;;;16.75;36.14;100273.78;5036288;28;1144;-55
2024/01/15 05:53:28;;;;;;;;;;;;;;;16.16;37.24;100275.56;5036671;28;1107;-59
2024/01/15 05:55:55;;;;;;;;;;;;;;;15.84;37.69;100270.50;5036205;28;1084;-56
2024/01/15 05:58:21;;;;;;;;;;;;;;;17.62;34.37;100274.06;5036138;28;1909;-58
2024/01/15 06:00:47;;;;;;;;;;;;;;;17.34;34.79;100268.31;5036523;28;1107;-58
2024/01/15 06:03:13;;;;;;;;;;;;;;;16.46;36.47;100275.66;5036321;28;1506;-59
2024/01/15 06:05:39;;;;;;;;;;;;;;;16.08;37.58;100268.72;5036326;28;1087;-57
2024/01/15 06:08:05;;;;;;;;;;;;;;;17.08;35.60;100270.50;5036488;28;1127;-56
2024/01/15 06:10:30;;;;;;;;;;;;;;;17.61;34.35;100269.66;5036097;28;1187;-58
2024/01/15 06:12:56;;;;;;;;;;;;;;;16.50;36.59;100271.22;5036023;28;1117;-56
2024/01/15 06:15:21;;;;;;;;;;;;;;;16.06;37.56;100275.59;5036147;28;1052;-55
2024/01/15 06:17:47;;;;;;;;;;;;;;;17.71;34.39;100275.06;5036252;28;1975;-59
2024/01/15 06:20:13;;;;;;;;;;;;;;;16.88;35.81;100271.47;5035595;28;1168;-57
2024/01/15 06:22:39;;;;;;;;;;;;;;;16.22;37.34;100274.41;5036759;28;1167;-57
2024/01/15 06:25:06;;;;;;;;;;;;;;;17.42;35.14;100270.44;5034943;28;1131;-60
2024/01/15 06:27:31;;;;;;;;;;;;;;;17.59;34.35;100264.47;5030030;28;1267;-61
2024/01/15 06:29:57;;;;;;;;;;;;;;;16.58;36.62;100265.13;5003915;28;1291;-57
2024/01/15 06:32:23;;;;;;;;;;;;;;;16.08;37.44;100254.19;5026784;28;1200;-58
2024/01/15 06:34:48;;;;;;;;;;;;;;;17.28;35.23;100253.81;5035940;28;1329;-57
2024/01/15 06:37:14;;;;;;;;;;;;;;;17.62;34.56;100249.31;5036478;28;1909;-57
2024/01/15 06:39:39;;;;;;;;;;;;;;;16.65;36.26;100251.91;5036807;28;1075;-58
2024/01/15 06:42:05;;;;;;;;;;;;;;;18.27;33.62;100257.03;5039845;28;1076;-59
2024/01/15 06:44:30;;;;;;;;;;;;;;;17.34;35.14;100251.03;5039315;28;1493;-58
2024/01/15 06:46:59;;;;;;;;;;;;;;;16.63;36.54;100247.78;5039839;28;1055;-60
2024/01/15 06:49:25;;;;;;;;;;;;;;;16.24;37.32;100242.03;5040042;28;1096;-58
2024/01/15 06:51:50;;;;;;;;;;;;;;;17.83;34.27;100235.31;5039077;28;1348;-60
2024/01/15 06:54:16;;;;;;;;;;;;;;;17.07;35.46;100225.72;5039552;28;994;-58
2024/01/15 06:56:41;;;;;;;;;;;;;;;16.35;37.07;100226.31;5039041;28;1906;-61
2024/01/15 06:59:07;;;;;;;;;;;;;;;17.15;35.68;100235.25;5040083;28;1101;-60
2024/01/15 07:01:33;;;;;;;;;;;;;;;17.40;35.02;100239.69;5038799;28;1365;-60
2024/01/15 07:03:58;;;;;;;;;;;;;;;16.37;37.05;100239.78;5039290;28;1163;-57
2024/01/15 07:06:24;;;;;;;;;;;;;;;16.13;37.72;100243.22;5040114;28;1138;-60
2024/01/15 07:08:49;;;;;;;;;;;;;;;17.75;34.37;100232.13;5039479;28;1227;-57
2024/01/15 07:11:15;;;;;;;;;;;;;;;16.50;36.83;100233.63;5039604;28;1321;-60
2024/01/15 07:13:41;;;;;;;;;;;;;;;16.10;37.50;100234.72;5039605;28;1028;-59
2024/01/15 07:16:07;;;;;;;;;;;;;;;16.32;37.16;100237.84;5038517;28;1346;-60
2024/01/15 07:18:32;;;;;;;;;;;;;;;17.58;34.71;100223.53;5044831;28;1913;-59
2024/01/15 07:20:59;;;;;;;;;;;;;;;16.37;36.95;100229.59;5039157;28;1072;-57
2024/01/15 07:23:24;;;;;;;;;;;;;;;17.30;35.30;100226.03;5037511;28;906;-63
2024/01/15 07:25:50;;;;;;;;;;;;;;;17.73;34.43;100228.03;5039284;28;1048;-63
2024/01/15 07:28:15;;;;;;;;;;;;;;;16.49;36.67;100225.66;5034862;28;1263;-60
2024/01/15 07:30:41;;;;;;;;;;;;;;;17.20;35.55;100218.72;5039085;28;1016;-59
2024/01/15 07:33:06;;;;;;;;;;;;;;;16.94;35.97;100215.41;5038517;28;1134;-60
2024/01/15 07:35:32;;;;;;;;;;;;;;;16.51;37.01;100215.22;5039260;28;1220;-59
2024/01/15 07:37:57;;;;;;;;;;;;;;;16.43;37.47;100217.47;5039537;28;1977;-63
2024/01/15 07:40:24;;;;;;;;;;;;;;;16.94;36.26;100215.41;5039173;28;1021;-62
2024/01/15 07:42:50;;;;;;;;;;;;;;;17.44;35.18;100213.22;5037275;28;1074;-61
2024/01/15 07:45:16;;;;;;;;;;;;;;;16.39;37.42;100219.16;5038884;28;1069;-58
2024/01/15 07:47:41;;;;;;;;;;;;;;;16.36;37.47;100216.16;5038640;28;1227;-60
2024/01/15 07:50:07;;;;;;;;;;;;;;;18.05;34.04;100221.03;5038873;28;1183;-59
2024/01/15 07:52:32;;;;;;;;;;;;;;;16.64;36.70;100211.81;5038221;28;1420;-59
2024/01/15 07:55:03;;;;;;;;;;;;;;;16.18;37.67;100218.47;5038529;28;1180;-58
2024/01/15 07:57:29;;;;;;;;;;;;;;;16.39;37.52;100216.41;5038029;28;1975;-60
2024/01/15 07:59:54;;;;;;;;;;;;;;;18.11;34.18;100219.81;5038905;28;1164;-59
2024/01/15 08:02:20;;;;;;;;;;;;;;;16.74;36.40;100219.97;5038821;28;1127;-59
2024/01/15 08:04:45;;;;;;;;;;;;;;;16.29;37.37;100219.22;5038381;28;1114;-59
2024/01/15 08:07:11;;;;;;;;;;;;;;;15.97;38.16;100220.53;5038977;28;1080;-61
2024/01/15 08:09:37;;;;;;;;;;;;;;;15.78;38.48;100216.75;5038383;28;1060;-61
2024/01/15 08:12:02;;;;;;;;;;;;;;;16.45;37.19;100224.59;5036709;28;1171;-62
2024/01/15 08:14:28;;;;;;;;;;;;;;;17.18;35.62;100223.72;5037158;28;1115;-59
2024/01/15 08:16:54;;;;;;;;;;;;;;;16.19;37.70;100219.31;5038168;28;1909;-58
2024/01/15 08:19:22;;;;;;;;;;;;;;;18.02;34.24;100200.44;5038162;28;1304;-59
2024/01/15 08:21:48;;;;;;;;;;;;;;;17.03;36.13;100201.91;5038247;28;1143;-57
2024/01/15 08:24:14;;;;;;;;;;;;;;;16.42;37.10;100204.03;5038349;28;1227;-58
2024/01/15 08:26:40;;;;;;;;;;;;;;;16.11;38.02;100208.94;5037883;28;1060;-58
2024/01/15 08:29:05;;;;;;;;;;;;;;;17.99;34.39;100211.19;5037054;28;1075;-60
2024/01/15 08:31:31;;;;;;;;;;;;;;;16.70;36.68;100210.66;5036864;28;1175;-62
2024/01/15 08:33:57;;;;;;;;;;;;;;;16.27;37.54;100209.63;5037101;28;1168;-59
2024/01/15 08:36:24;;;;;;;;;;;;;;;16.84;36.42;100216.31;5037691;28;1973;-60
2024/01/15 08:38:49;;;;;;;;;;;;;;;17.42;35.25;100203.66;5037136;28;1528;-61
2024/01/15 08:41:15;;;;;;;;;;;;;;;16.43;37.09;100211.97;5038364;28;1170;-59
2024/01/15 08:43:40;;;;;;;;;;;;;;;16.14;37.68;100211.09;5037693;28;1166;-59
2024/01/15 08:46:07;;;;;;;;;;;;;;;15.87;38.37;100206.88;5035798;28;1345;-59
2024/01/15 08:48:32;;;;;;;;;;;;;;;15.71;38.71;100211.56;5037750;28;1041;-58
2024/01/15 08:50:58;;;;;;;;;;;;;;;17.60;35.12;100207.56;5036040;28;1304;-59
2024/01/15 08:53:23;;;;;;;;;;;;;;;16.62;36.86;100214.06;5037401;28;962;-60
2024/01/15 08:55:49;;;;;;;;;;;;;;;16.15;37.96;100199.84;5036567;28;1399;-60
2024/01/15 08:58:15;;;;;;;;;;;;;;;17.99;34.19;100198.25;5036145;28;2010;-56
2024/01/15 09:00:40;;;;;;;;;;;;;;;16.71;36.48;100200.50;5037375;28;1048;-59
2024/01/15 09:03:06;;;;;;;;;;;;;;;16.16;37.81;100195.16;5036727;28;1063;-61
2024/01/15 09:05:32;;;;;;;;;;;;;;;17.40;35.35;100189.38;5037272;28;1129;-60
2024/01/15 09:07:57;;;;;;;;;;;;;;;16.99;36.14;100182.41;5038056;28;1088;-59
2024/01/15 09:10:23;;;;;;;;;;;;;;;16.24;37.53;100170.72;5036587;28;1076;-59
2024/01/15 09:12:49;;;;;;;;;;;;;;;17.07;36.19;100170.00;5036078;28;1414;-59
2024/01/15 09:15:15;;;;;;;;;;;;;;;17.34;35.27;100155.66;5035800;28;1681;-58
2024/01/15 09:17:40;;;;;;;;;;;;;;;16.44;37.02;100146.97;5037069;28;1922;-60
2024/01/15 09:20:06;;;;;;;;;;;;;;;16.14;37.79;100148.81;5037037;28;1187;-59
2024/01/15 09:22:32;;;;;;;;;;;;;;;17.87;34.59;100137.34;5036887;28;1199;-60
2024/01/15 09:24:58;;;;;;;;;;;;;;;16.84;36.21;100139.41;5037058;28;1056;-58
2024/01/15 09:27:26;;;;;;;;;;;;;;;16.90;36.68;100127.31;5037375;28;1160;-58
2024/01/15 09:29:52;;;;;;;;;;;;;;;17.46;35.21;100133.25;5036882;28;1057;-62
2024/01/15 09:32:18;;;;;;;;;;;;;;;16.54;36.90;100133.13;5036145;28;1171;-58
2024/01/15 09:34:43;;;;;;;;;;;;;;;16.22;37.71;100125.47;5035114;28;1377;-58
2024/01/15 09:37:09;;;;;;;;;;;;;;;16.03;38.26;100123.44;5032472;28;1983;-59
2024/01/15 09:39:35;;;;;;;;;;;;;;;17.92;34.67;100123.53;5035803;28;1312;-58
2024/01/15 09:42:00;;;;;;;;;;;;;;;16.90;36.17;100112.75;5035651;28;1281;-60
2024/01/15 09:44:26;;;;;;;;;;;;;;;16.30;37.42;100113.03;5018768;28;1353;-59
2024/01/15 09:46:52;;;;;;;;;;;;;;;17.12;36.04;100108.66;5016163;28;1342;-60
2024/01/15 09:49:17;;;;;;;;;;;;;;;17.54;35.21;100112.50;5025416;28;1105;-59
2024/01/15 09:51:43;;;;;;;;;;;;;;;16.56;37.10;100110.88;5034332;28;1139;-57
2024/01/15 09:54:09;;;;;;;;;;;;;;;16.11;37.87;100105.53;5036557;28;1203;-59
2024/01/15 09:56:35;;;;;;;;;;;;;;;17.47;35.73;100096.38;5041864;28;2001;-62
2024/01/15 09:59:00;;;;;;;;;;;;;;;17.09;36.11;100096.34;5036074;28;1127;-60
2024/01/15 10:01:26;;;;;;;;;;;;;;;16.37;37.62;100088.84;5019051;28;1068;-57
2024/01/15 10:03:53;;;;;;;;;;;;;;;16.06;38.14;100092.69;5036831;28;1071;-60
2024/01/15 10:06:18;;;;;;;;;;;;;;;16.97;36.48;100082.19;5035613;28;1405;-58
2024/01/15 10:08:47;;;;;;;;;;;;;;;17.83;34.64;100073.88;5036180;28;1068;-60
2024/01/15 10:11:13;;;;;;;;;;;;;;;16.58;37.21;100086.72;5035869;28;1261;-59
2024/01/15 10:13:39;;;;;;;;;;;;;;;17.15;36.39;100072.38;5036625;28;1132;-59
2024/01/15 10:16:05;;;;;;;;;;;;;;;17.09;36.13;100064.19;5036077;28;1099;-59
2024/01/15 10:18:31;;;;;;;;;;;;;;;16.40;37.53;100058.91;5036720;28;1909;-59
2024/01/15 10:21:00;;;;;;;;;;;;;;;16.36;37.62;100054.28;5035792;28;1156;-58
2024/01/15 10:23:26;;;;;;;;;;;;;;;17.91;34.70;100051.22;5031804;28;1197;-60
2024/01/15 10:25:52;;;;;;;;;;;;;;;16.57;37.10;100047.47;5036094;28;1243;-62
2024/01/15 10:28:19;;;;;;;;;;;;;;;16.21;37.92;100044.28;5027434;28;1403;-61
2024/01/15 10:30:45;;;;;;;;;;;;;;;17.98;34.75;100031.59;5036334;28;1076;-60
2024/01/15 10:33:11;;;;;;;;;;;;;;;16.76;36.76;100028.31;5036051;28;1176;-59
2024/01/15 10:35:37;;;;;;;;;;;;;;;16.31;37.67;100019.47;5036124;28;1180;-59
2024/01/15 10:38:04;;;;;;;;;;;;;;;16.03;38.26;100027.44;5036145;28;1910;-61
2024/01/15 10:40:29;;;;;;;;;;;;;;;15.84;38.67;100004.56;5036402;28;1088;-61
2024/01/15 10:42:55;;;;;;;;;;;;;;;17.42;35.76;99987.34;5036207;28;1101;-59
2024/01/15 10:45:21;;;;;;;;;;;;;;;16.69;37.11;99986.69;5036308;28;1135;-60
2024/01/15 10:47:46;;;;;;;;;;;;;;;16.11;38.20;99978.56;5035776;28;903;-58
2024/01/15 10:50:12;;;;;;;;;;;;;;;15.97;38.43;99984.69;5035273;28;1048;-58
2024/01/15 10:52:38;;;;;;;;;;;;;;;17.85;35.06;99980.06;5035660;28;1140;-60
2024/01/15 10:55:04;;;;;;;;;;;;;;;16.99;36.54;99968.19;5035217;28;1328;-61
2024/01/15 10:57:29;;;;;;;;;;;;;;;16.36;37.61;99964.56;5035894;28;1910;-61
2024/01/15 10:59:55;;;;;;;;;;;;;;;16.05;38.42;99958.59;5033522;28;1365;-59
2024/01/15 11:02:21;;;;;;;;;;;;;;;15.86;38.62;99966.72;5036163;28;1211;-60
2024/01/15 11:04:46;;;;;;;;;;;;;;;17.64;35.23;99963.91;5035635;28;1179;-61
2024/01/15 11:07:12;;;;;;;;;;;;;;;16.88;36.66;99958.44;5036171;28;1156;-61
2024/01/15 11:09:38;;;;;;;;;;;;;;;16.27;37.72;99955.34;5018262;28;1320;-61
2024/01/15 11:12:07;;;;;;;;;;;;;;;17.09;36.63;99957.03;5018034;28;1164;-60
2024/01/15 11:14:39;;;;;;;;;;;;;;;17.65;35.22;99946.28;5036513;28;1092;-61
2024/01/15 11:17:05;;;;;;;;;;;;;;;16.48;37.38;99947.69;5035986;28;1898;-60
2024/01/15 11:19:39;;;;;;;;;;;;;;;16.12;38.22;99952.75;5035733;28;1079;-59
2024/01/15 11:22:06;;;;;;;;;;;;;;;17.76;35.44;99949.69;5035541;28;1115;-58
2024/01/15 11:24:38;;;;;;;;;;;;;;;16.95;36.58;99930.63;5033759;28;1026;-60
2024/01/15 11:27:04;;;;;;;;;;;;;;;16.33;37.77;99942.38;5036642;28;1282;-59
2024/01/15 11:29:29;;;;;;;;;;;;;;;16.01;38.75;99936.41;5038781;28;1040;-60
2024/01/15 11:31:55;;;;;;;;;;;;;;;15.98;38.65;99939.72;5038992;28;1083;-60
2024/01/15 11:34:21;;;;;;;;;;;;;;;17.78;34.84;99926.28;5038982;28;1143;-60
2024/01/15 11:36:49;;;;;;;;;;;;;;;16.52;37.35;99932.28;5038755;28;1961;-57
2024/01/15 11:39:27;;;;;;;;;;;;;;;15.99;38.56;99913.94;5038457;28;1255;-60
2024/01/15 11:41:59;;;;;;;;;;;;;;;15.75;39.08;99911.13;5038917;28;1107;-58
2024/01/15 11:44:25;;;;;;;;;;;;;;;17.69;35.42;99913.53;5039043;28;1056;-60
2024/01/15 11:47:03;;;;;;;;;;;;;;;16.86;36.64;99905.75;5036672;28;1136;-59
2024/01/15 11:49:47;;;;;;;;;;;;;;;16.19;38.28;99914.84;5035422;28;1017;-61
2024/01/15 11:52:13;;;;;;;;;;;;;;;17.07;36.72;99911.78;5038417;28;1159;-62
2024/01/15 11:54:39;;;;;;;;;;;;;;;17.21;36.09;99900.88;5037865;28;1080;-61
2024/01/15 11:57:06;;;;;;;;;;;;;;;16.41;37.78;99897.81;5020190;28;1906;-62
2024/01/15 11:59:32;;;;;;;;;;;;;;;17.07;36.31;99895.31;5019541;28;1216;-59
2024/01/15 12:01:57;;;;;;;;;;;;;;;17.55;35.58;99899.75;5037947;28;1171;-61
2024/01/15 12:04:23;;;;;;;;;;;;;;;16.77;37.29;99895.44;5038632;28;1410;-62
2024/01/15 12:06:49;;;;;;;;;;;;;;;18.42;33.94;99889.84;5020447;28;1113;-61
2024/01/15 12:09:14;;;;;;;;;;;;;;;17.35;35.88;99885.25;5038277;28;1084;-61
2024/01/15 12:11:41;;;;;;;;;;;;;;;16.65;37.02;99881.31;5037601;28;1052;-61
2024/01/15 12:14:07;;;;;;;;;;;;;;;16.28;38.15;99874.66;5021172;28;1128;-61
2024/01/15 12:16:34;;;;;;;;;;;;;;;16.07;38.42;99877.66;5039285;28;1961;-62
2024/01/15 12:19:00;;;;;;;;;;;;;;;17.51;35.89;99874.78;5031119;28;1136;-62
2024/01/15 12:21:26;;;;;;;;;;;;;;;17.09;36.36;99873.84;5044357;28;1107;-61
2024/01/15 12:23:52;;;;;;;;;;;;;;;16.41;37.78;99871.22;5042554;28;1277;-61
2024/01/15 12:26:18;;;;;;;;;;;;;;;16.19;38.35;99870.94;5047279;28;1103;-59
2024/01/15 12:28:43;;;;;;;;;;;;;;;17.55;35.69;99867.56;5020570;28;1148;-61
2024/01/15 12:31:09;;;;;;;;;;;;;;;17.38;35.91;99868.13;5038343;28;1095;-59
2024/01/15 12:33:34;;;;;;;;;;;;;;;16.63;37.46;99867.06;5038196;28;1184;-58
2024/01/15 12:36:00;;;;;;;;;;;;;;;16.21;38.24;99847.56;5037927;28;1154;-57
2024/01/15 12:38:26;;;;;;;;;;;;;;;15.97;38.64;99852.28;5037702;28;1984;-65
2024/01/15 12:40:51;;;;;;;;;;;;;;;15.98;38.65;99849.25;5020158;28;1361;-61